Terminal Aerodrome Forecast
Issued by NWS King Salmon, AK

Home | Current Version | Previous Version | Text Only | Print | Product List | Glossary On
Versions: 1 2 3 4 5 6 7 8 9 10 11 12 13 14 15 16 17 18 19 20 21 22 23 24 25 26 27 28 29 30 31 32
610
FTAK31 PANC 232335
TAFAKN
TAF
PAKN 232335Z 2400/2424 35015KT P6SM SKC
     FM240300 35007KT P6SM SKC
     FM242100 36009G20KT P6SM SKC=

USA.gov is the U.S. government's official web portal to all federal, state and local government web resources and services.